Aviation Digital Data Service (ADDS)

Output produced by METARs form (1137 UTC 19 June 2019)
found at http://www.aviationweather.gov/metar/data/
 
MNMG 190900Z 1912/2012 13006KT 9999 FEW021 
     TEMPO 1914/1920 09010KT 9000 SHRA/DZ SCT025 
     PROB30 
     TEMPO 1921/2003 7000 -TSRA FEW020CB SCT023